Time;durP1;ratioP1;P1;durP2;ratioP2;P2;SDS_P1;SDS_P2;PMS_P1;PMS_P2;Temp;Humidity;BMP_temperature;BMP_pressure;BME280_temperature;BME280_humidity;BME280_pressure;Samples;Min_cycle;Max_cycle;Signal;HPM_P1;HPM_P2
2023/03/05 00:01:55;;;;;;;;;;;8.30;73.80;;;7.15;58.41;101090.50;5039326;28;20666;-81
2023/03/05 00:04:22;;;;;;;;;;;8.30;73.80;;;7.16;58.50;101086.84;5050431;28;19929;-81
2023/03/05 00:06:49;;;;;;;;;;;8.30;73.90;;;7.13;59.01;101079.25;5040761;28;20409;-81
2023/03/05 00:09:16;;;;;;;;;;;8.30;74.10;;;7.10;58.88;101079.59;5051204;28;19925;-81
2023/03/05 00:11:43;;;;;;;;;;;8.30;74.30;;;7.13;59.01;101081.06;5038337;28;19936;-81
2023/03/05 00:14:10;;;;;;;;;;;8.30;74.30;;;7.16;58.67;101086.84;5038985;28;19929;-81
2023/03/05 00:16:37;;;;;;;;;;;8.30;74.30;;;7.15;59.03;101082.53;5033385;28;19925;-81
2023/03/05 00:19:06;;;;;;;;;;;8.30;74.50;;;7.14;59.07;101077.41;5040390;28;19932;-82
2023/03/05 00:21:35;;;;;;;;;;;8.30;74.50;;;7.10;59.24;101068.16;5040927;28;20434;-81
2023/03/05 00:24:04;;;;;;;;;;;8.30;74.50;;;7.08;59.49;101078.94;5050802;28;19935;-81
2023/03/05 00:26:33;;;;;;;;;;;8.20;74.60;;;7.10;59.52;101082.25;5040260;28;19986;-81
2023/03/05 00:29:00;;;;;;;;;;;8.20;74.80;;;7.07;59.47;101069.31;5030859;28;19940;-81
2023/03/05 00:31:29;;;;;;;;;;;8.20;75.00;;;7.05;60.02;101073.16;5045153;28;19967;-81
2023/03/05 00:33:58;;;;;;;;;;;8.20;75.00;;;7.05;59.88;101073.97;5043729;28;19984;-81
2023/03/05 00:36:27;;;;;;;;;;;8.20;75.30;;;7.04;59.89;101072.31;5041195;28;19929;-81
2023/03/05 00:38:55;;;;;;;;;;;8.20;75.20;;;7.06;59.65;101062.38;5028075;28;19933;-81
2023/03/05 00:41:22;;;;;;;;;;;8.20;75.20;;;7.02;59.92;101063.69;5049523;28;20306;-81
2023/03/05 00:43:49;;;;;;;;;;;8.20;75.20;;;7.03;59.76;101052.13;5038257;28;19925;-81
2023/03/05 00:46:16;;;;;;;;;;;8.20;75.20;;;6.95;59.91;101060.94;5039525;28;20310;-81
2023/03/05 00:48:44;;;;;;;;;;;8.10;75.30;;;6.94;60.05;101059.28;5050785;28;19978;-81
2023/03/05 00:51:11;;;;;;;;;;;8.10;75.40;;;7.00;59.69;101051.63;5044978;28;19948;-81
2023/03/05 00:53:39;;;;;;;;;;;8.10;75.30;;;7.00;59.70;101049.81;5034966;28;20354;-81
2023/03/05 00:56:06;;;;;;;;;;;8.20;75.30;;;7.00;59.79;101052.44;5039771;28;19929;-81
2023/03/05 00:58:33;;;;;;;;;;;8.10;75.30;;;7.02;59.47;101047.78;5047398;28;19929;-81
2023/03/05 01:01:01;;;;;;;;;;;8.10;75.10;;;6.98;59.57;101043.84;5033408;28;19929;-81
2023/03/05 01:03:28;;;;;;;;;;;8.10;74.90;;;7.01;59.35;101040.03;5042760;28;19932;-81
2023/03/05 01:05:56;;;;;;;;;;;8.20;74.90;;;7.04;59.10;101037.84;5049624;28;19929;-81
2023/03/05 01:08:23;;;;;;;;;;;8.10;74.60;;;7.02;59.24;101034.53;5030707;28;20394;-81
2023/03/05 01:10:51;;;;;;;;;;;8.10;74.60;;;7.01;58.97;101027.59;5048333;28;19929;-81
2023/03/05 01:13:20;;;;;;;;;;;8.10;74.70;;;7.03;58.83;101022.94;5031277;28;20414;-81
2023/03/05 01:15:47;;;;;;;;;;;8.10;74.70;;;6.99;58.92;101026.94;5026135;28;19928;-81
2023/03/05 01:18:14;;;;;;;;;;;8.10;74.50;;;6.99;59.06;101031.41;5036124;28;19928;-81
2023/03/05 01:20:41;;;;;;;;;;;8.00;74.70;;;6.97;59.02;101029.75;5039195;28;19936;-81
2023/03/05 01:23:08;;;;;;;;;;;8.10;74.90;;;6.87;59.73;101036.25;5046239;28;19972;-81
2023/03/05 01:25:35;;;;;;;;;;;8.00;74.90;;;6.89;59.54;101027.16;5046821;28;19935;-81
2023/03/05 01:28:05;;;;;;;;;;;8.10;75.00;;;6.93;59.36;101022.34;5030894;28;19928;-81
2023/03/05 01:30:33;;;;;;;;;;;8.10;75.00;;;6.93;59.58;101014.38;5019807;28;20337;-81
2023/03/05 01:33:00;;;;;;;;;;;8.10;75.20;;;6.78;59.84;101024.03;5038109;28;19929;-81
2023/03/05 01:35:28;;;;;;;;;;;8.00;75.00;;;6.80;59.79;101019.41;5030318;28;19952;-81
2023/03/05 01:37:55;;;;;;;;;;;8.00;75.30;;;6.82;60.19;101012.09;5041407;28;19932;-81
2023/03/05 01:40:25;;;;;;;;;;;8.00;75.40;;;6.87;59.58;101009.75;5030871;28;19948;-81
2023/03/05 01:42:58;;;;;;;;;;;8.00;75.00;;;6.86;59.78;101005.47;5026253;28;19924;-81
2023/03/05 01:45:30;;;;;;;;;;;8.10;75.30;;;6.78;59.99;101003.66;5047691;28;20469;-81
2023/03/05 01:47:57;;;;;;;;;;;8.00;75.40;;;6.82;60.25;101004.97;5019960;28;19929;-81
2023/03/05 01:50:26;;;;;;;;;;;8.00;75.50;;;6.77;60.07;101003.84;5030683;28;20302;-81
2023/03/05 01:52:58;;;;;;;;;;;8.00;75.60;;;6.78;60.37;100994.88;5058132;28;20302;-81
2023/03/05 01:55:26;;;;;;;;;;;8.00;75.60;;;6.78;60.60;101003.66;5035556;28;19929;-81
2023/03/05 01:57:54;;;;;;;;;;;8.00;75.80;;;6.81;60.38;100989.25;5024269;28;20413;-81
2023/03/05 02:00:26;;;;;;;;;;;8.00;75.60;;;6.83;60.21;100990.75;5047173;28;19929;-81
2023/03/05 02:02:55;;;;;;;;;;;8.00;75.60;;;6.85;59.71;100982.59;5031774;28;19931;-81
2023/03/05 02:05:26;;;;;;;;;;;8.00;75.30;;;6.84;59.27;100981.78;5049329;28;20457;-81
2023/03/05 02:07:54;;;;;;;;;;;8.00;74.90;;;6.84;59.34;100981.78;5040451;28;19986;-81
2023/03/05 02:10:24;;;;;;;;;;;8.00;74.70;;;6.84;59.26;100981.78;5046646;28;19936;-81
2023/03/05 02:12:53;;;;;;;;;;;8.00;74.50;;;6.82;58.68;100975.00;5024803;28;20449;-81
2023/03/05 02:15:20;;;;;;;;;;;8.00;74.10;;;6.81;58.99;100974.16;5041675;28;19937;-81
2023/03/05 02:17:47;;;;;;;;;;;8.00;74.00;;;6.83;58.93;100964.22;5040579;28;19940;-81
2023/03/05 02:20:18;;;;;;;;;;;8.00;74.00;;;6.85;58.51;100972.00;5046760;28;19924;-81
2023/03/05 02:22:47;;;;;;;;;;;8.00;73.40;;;6.85;58.15;100964.03;5044290;28;20011;-81
2023/03/05 02:25:17;;;;;;;;;;;8.00;73.30;;;6.80;58.04;100961.09;5043027;28;19948;-81
2023/03/05 02:27:50;;;;;;;;;;;8.10;73.40;;;6.79;58.12;100952.31;5041176;28;19928;-81
2023/03/05 02:30:17;;;;;;;;;;;8.10;73.30;;;6.83;58.21;100958.06;5043815;28;20384;-81
2023/03/05 02:32:44;;;;;;;;;;;8.10;73.10;;;6.84;58.00;100949.97;5039580;28;19925;-81
2023/03/05 02:35:11;;;;;;;;;;;8.00;72.70;;;6.85;58.16;100946.31;5027154;28;19933;-81
2023/03/05 02:37:38;;;;;;;;;;;8.10;73.10;;;6.84;57.85;100951.78;5021165;28;19932;-81
2023/03/05 02:40:09;;;;;;;;;;;8.10;72.90;;;6.84;58.11;100946.50;5025918;28;19936;-81
2023/03/05 02:42:36;;;;;;;;;;;8.10;72.90;;;6.83;57.88;100940.38;5029535;28;19929;-81
2023/03/05 02:45:04;;;;;;;;;;;8.10;72.90;;;6.87;57.60;100939.00;5031339;28;20007;-81
2023/03/05 02:47:31;;;;;;;;;;;8.10;72.90;;;6.89;57.90;100941.50;5042709;28;19936;-81
2023/03/05 02:49:58;;;;;;;;;;;8.10;72.80;;;6.86;58.06;100934.69;5029312;28;20310;-81
2023/03/05 02:52:26;;;;;;;;;;;8.10;73.00;;;6.87;58.32;100927.56;5029482;28;19979;-81
2023/03/05 02:54:53;;;;;;;;;;;8.10;73.10;;;6.88;58.12;100934.50;5043653;28;19964;-81
2023/03/05 02:57:21;;;;;;;;;;;8.10;73.20;;;6.86;58.26;100934.69;5022344;28;19929;-81
2023/03/05 02:59:48;;;;;;;;;;;8.10;73.40;;;6.88;58.30;100934.50;5048076;28;19925;-81
2023/03/05 03:02:16;;;;;;;;;;;8.10;73.50;;;6.85;58.61;100926.94;5042365;28;19924;-81
2023/03/05 03:04:44;;;;;;;;;;;8.10;73.50;;;6.83;58.52;100924.47;5039060;28;19967;-81
2023/03/05 03:07:11;;;;;;;;;;;8.10;73.60;;;6.83;58.66;100921.81;5042219;28;19951;-81
2023/03/05 03:09:39;;;;;;;;;;;8.10;73.70;;;6.82;58.88;100914.00;5044270;28;19925;-81
2023/03/05 03:12:06;;;;;;;;;;;8.10;73.70;;;6.84;58.76;100920.81;5037890;28;19951;-81
2023/03/05 03:14:40;;;;;;;;;;;8.10;73.70;;;6.87;58.53;100903.72;5045131;28;20303;-81
2023/03/05 03:17:07;;;;;;;;;;;8.10;73.70;;;6.83;58.78;100899.75;5040163;28;19935;-81
2023/03/05 03:19:35;;;;;;;;;;;8.10;73.80;;;6.82;59.22;100890.97;5048732;28;19924;-81
2023/03/05 03:22:26;;;;;;;;;;;8.10;74.00;;;6.80;59.25;100889.53;5090351;22;19929;-78
2023/03/05 03:24:53;;;;;;;;;;;8.10;74.20;;;6.82;58.85;100887.50;5044555;28;20302;-78
2023/03/05 03:27:20;;;;;;;;;;;8.10;74.20;;;6.84;59.42;100886.34;5049510;28;19939;-78
2023/03/05 03:29:48;;;;;;;;;;;8.00;74.30;;;6.85;59.06;100884.50;5047923;28;19939;-78
2023/03/05 03:32:15;;;;;;;;;;;8.00;74.40;;;6.85;59.22;100887.97;5044984;28;19929;-78
2023/03/05 03:34:43;;;;;;;;;;;8.00;74.40;;;6.85;58.95;100880.03;5048433;28;19928;-78
2023/03/05 03:37:11;;;;;;;;;;;8.00;74.30;;;6.82;59.09;100875.06;5043676;28;19973;-77
2023/03/05 03:39:38;;;;;;;;;;;8.00;74.30;;;6.79;59.37;100872.78;5048550;28;19943;-77
2023/03/05 03:42:05;;;;;;;;;;;8.00;74.50;;;6.81;59.40;100875.25;5046642;28;19925;-78
2023/03/05 03:44:32;;;;;;;;;;;8.00;74.40;;;6.81;59.54;100869.97;5044787;28;19928;-78
2023/03/05 03:47:00;;;;;;;;;;;8.00;74.40;;;6.79;59.46;100864.03;5045069;28;19925;-77
2023/03/05 03:49:27;;;;;;;;;;;8.00;74.60;;;6.79;59.67;100866.66;5049130;28;19932;-78
2023/03/05 03:51:54;;;;;;;;;;;8.00;74.80;;;6.79;59.47;100862.19;5047690;28;20302;-78
2023/03/05 03:54:22;;;;;;;;;;;8.00;74.90;;;6.79;59.60;100856.06;5048343;28;19935;-78
2023/03/05 03:56:49;;;;;;;;;;;8.00;75.00;;;6.77;59.86;100853.56;5041673;28;19925;-77
2023/03/05 03:59:16;;;;;;;;;;;8.00;75.00;;;6.75;59.89;100857.41;5044692;28;19929;-78
2023/03/05 04:01:43;;;;;;;;;;;8.00;75.30;;;6.77;59.97;100850.09;5041334;28;19929;-78
2023/03/05 04:04:12;;;;;;;;;;;8.00;75.20;;;6.77;59.89;100844.81;5045216;28;19928;-78
2023/03/05 04:06:39;;;;;;;;;;;8.00;75.30;;;6.75;59.93;100849.47;5047497;28;19931;-77
2023/03/05 04:09:07;;;;;;;;;;;7.90;75.30;;;6.70;60.01;100844.69;5038649;28;19941;-77
2023/03/05 04:11:34;;;;;;;;;;;7.80;75.40;;;6.70;60.03;100848.16;5039982;28;20345;-77
2023/03/05 04:14:01;;;;;;;;;;;7.80;75.50;;;6.71;59.78;100844.50;5048299;28;19954;-78
2023/03/05 04:16:28;;;;;;;;;;;7.80;75.40;;;6.70;60.07;100834.91;5046388;28;19932;-78
2023/03/05 04:18:55;;;;;;;;;;;7.90;75.60;;;6.71;59.84;100833.09;5046884;28;20367;-78
2023/03/05 04:21:23;;;;;;;;;;;7.90;75.50;;;6.75;59.95;100831.72;5040097;28;20406;-78
2023/03/05 04:23:50;;;;;;;;;;;7.90;75.50;;;6.75;60.28;100836.22;5047397;28;19925;-77
2023/03/05 04:26:17;;;;;;;;;;;7.90;75.60;;;6.76;60.19;100827.25;5050953;28;19951;-78
2023/03/05 04:28:47;;;;;;;;;;;7.90;76.00;;;6.74;60.65;100823.97;5043615;28;19925;-77
2023/03/05 04:31:14;;;;;;;;;;;7.90;76.20;;;6.72;60.87;100824.13;5042831;28;19944;-78
2023/03/05 04:33:40;;;;;;;;;;;7.90;76.60;;;6.70;60.90;100824.31;5043031;28;19925;-78
2023/03/05 04:36:08;;;;;;;;;;;7.90;76.90;;;6.70;61.28;100819.00;5050444;28;19955;-78
2023/03/05 04:38:37;;;;;;;;;;;7.90;77.20;;;6.74;61.51;100818.66;5047410;28;19924;-78
2023/03/05 04:41:04;;;;;;;;;;;7.90;77.10;;;6.69;61.97;100814.72;5045021;28;20395;-77
2023/03/05 04:43:31;;;;;;;;;;;7.80;77.50;;;6.68;61.29;100813.03;5050489;28;19925;-78
2023/03/05 04:45:58;;;;;;;;;;;7.80;77.30;;;6.64;61.20;100811.78;5051137;28;19951;-78
2023/03/05 04:48:25;;;;;;;;;;;7.80;77.10;;;6.58;61.80;100815.09;5049429;28;20003;-78
2023/03/05 04:50:52;;;;;;;;;;;7.80;77.30;;;6.61;61.40;100812.13;5049701;28;19928;-78
2023/03/05 04:53:19;;;;;;;;;;;7.80;77.20;;;6.61;61.28;100804.16;5050331;28;19933;-78
2023/03/05 04:55:52;;;;;;;;;;;7.80;77.00;;;6.65;61.60;100797.50;5050451;28;19931;-77
2023/03/05 04:58:19;;;;;;;;;;;7.80;77.10;;;6.67;60.99;100802.63;5048891;28;19953;-75
2023/03/05 05:00:46;;;;;;;;;;;7.80;76.80;;;6.66;60.92;100795.69;5044708;28;19932;-78
2023/03/05 05:03:12;;;;;;;;;;;7.80;76.80;;;6.65;61.18;100796.69;5046793;28;19925;-78
2023/03/05 05:05:39;;;;;;;;;;;7.80;76.70;;;6.63;61.06;100794.19;5028108;28;19929;-77
2023/03/05 05:08:06;;;;;;;;;;;7.80;76.60;;;6.63;60.93;100793.38;5043835;28;19929;-78
2023/03/05 05:10:33;;;;;;;;;;;7.80;76.60;;;6.66;60.96;100790.38;5051470;28;19939;-77
2023/03/05 05:13:02;;;;;;;;;;;7.80;76.40;;;6.65;60.83;100780.78;5050035;28;19925;-78
2023/03/05 05:15:29;;;;;;;;;;;7.90;76.40;;;6.65;60.77;100781.63;5048818;28;20458;-77
2023/03/05 05:17:56;;;;;;;;;;;7.80;76.40;;;6.63;61.06;100785.44;5048329;28;19931;-77
2023/03/05 05:20:22;;;;;;;;;;;7.80;76.50;;;6.63;61.12;100773.00;5050055;28;19929;-75
2023/03/05 05:22:49;;;;;;;;;;;7.80;76.80;;;6.61;61.22;100785.63;5023873;28;19929;-78
2023/03/05 05:25:16;;;;;;;;;;;7.80;76.80;;;6.61;61.38;100780.31;5047565;28;19931;-78
2023/03/05 05:27:43;;;;;;;;;;;7.80;77.00;;;6.63;61.42;100773.00;5047745;28;19943;-77
2023/03/05 05:30:13;;;;;;;;;;;7.80;76.80;;;6.66;61.06;100772.66;5040699;28;19926;-78
2023/03/05 05:32:40;;;;;;;;;;;7.80;76.90;;;6.67;61.15;100774.28;5044471;28;19929;-78
2023/03/05 05:35:07;;;;;;;;;;;7.80;77.00;;;6.67;60.86;100773.47;5048875;28;19925;-77
2023/03/05 05:37:34;;;;;;;;;;;7.80;76.70;;;6.59;61.39;100778.84;5047139;28;20406;-78
2023/03/05 05:40:03;;;;;;;;;;;7.80;77.00;;;6.51;61.77;100782.38;5048394;28;19943;-78
2023/03/05 05:42:30;;;;;;;;;;;7.90;77.40;;;6.53;61.52;100780.38;5048468;28;19935;-77
2023/03/05 05:44:56;;;;;;;;;;;7.70;77.30;;;6.54;61.53;100779.41;5049440;28;20275;-77
2023/03/05 05:47:25;;;;;;;;;;;7.70;77.20;;;6.57;61.50;100776.38;5047591;28;19928;-78
2023/03/05 05:49:52;;;;;;;;;;;7.80;77.10;;;6.57;61.22;100781.66;5049246;28;20302;-77
2023/03/05 05:52:19;;;;;;;;;;;7.70;77.00;;;6.54;61.76;100776.75;5049819;28;20670;-78
2023/03/05 05:54:46;;;;;;;;;;;7.70;77.10;;;6.53;61.65;100777.72;5049452;28;19925;-78
2023/03/05 05:57:12;;;;;;;;;;;7.70;77.20;;;6.54;61.99;100774.09;5046821;28;19935;-78
2023/03/05 05:59:39;;;;;;;;;;;7.70;77.30;;;6.58;61.33;100770.06;5046691;28;20286;-77
2023/03/05 06:02:07;;;;;;;;;;;7.80;77.10;;;6.56;61.61;100766.78;5047220;28;20441;-78
2023/03/05 06:04:36;;;;;;;;;;;7.70;77.20;;;6.56;61.67;100764.13;5045541;28;19929;-78
2023/03/05 06:07:03;;;;;;;;;;;7.70;77.40;;;6.59;61.26;100771.72;5034124;28;20403;-78
2023/03/05 06:09:30;;;;;;;;;;;7.70;77.30;;;6.58;61.49;100764.75;5045970;28;19933;-78
2023/03/05 06:11:57;;;;;;;;;;;7.70;77.10;;;6.61;61.43;100771.53;5039843;28;19931;-78
2023/03/05 06:14:24;;;;;;;;;;;7.70;77.20;;;6.56;61.78;100761.47;5049119;28;20386;-78
2023/03/05 06:16:51;;;;;;;;;;;7.70;77.10;;;6.54;61.56;100763.50;5047452;28;19929;-78
2023/03/05 06:19:18;;;;;;;;;;;7.80;77.10;;;6.55;61.59;100751.06;5048627;28;19936;-78
2023/03/05 06:21:46;;;;;;;;;;;7.70;77.20;;;6.57;61.61;100757.81;5042294;28;19940;-77
2023/03/05 06:24:13;;;;;;;;;;;7.70;77.20;;;6.56;61.39;100765.97;5048672;28;19952;-77
2023/03/05 06:26:40;;;;;;;;;;;7.80;77.00;;;6.51;61.95;100766.50;5048534;28;19929;-78
2023/03/05 06:29:07;;;;;;;;;;;7.70;77.20;;;6.49;61.92;100763.19;5044365;28;20016;-78
2023/03/05 06:31:34;;;;;;;;;;;7.70;77.40;;;6.51;61.59;100761.19;5039969;28;19929;-75
2023/03/05 06:34:01;;;;;;;;;;;7.70;77.40;;;6.50;62.19;100771.97;5042153;28;20387;-78
2023/03/05 06:36:28;;;;;;;;;;;7.70;77.60;;;6.52;62.12;100764.66;5048875;28;20402;-76
2023/03/05 06:38:57;;;;;;;;;;;7.70;77.40;;;6.54;61.43;100758.19;5047643;28;19935;-79
2023/03/05 06:41:27;;;;;;;;;;;7.70;77.40;;;6.55;61.91;100770.44;5040577;28;20502;-78
2023/03/05 06:43:54;;;;;;;;;;;7.70;77.50;;;6.55;61.96;100762.47;5048125;28;19935;-82
2023/03/05 06:46:22;;;;;;;;;;;7.70;77.60;;;6.58;61.50;100756.81;5044184;28;19935;-78
2023/03/05 06:48:54;;;;;;;;;;;7.70;77.60;;;6.57;61.34;100757.81;5046912;28;19933;-77
2023/03/05 06:51:23;;;;;;;;;;;7.70;77.30;;;6.55;61.61;100757.19;5048546;28;19928;-77
2023/03/05 06:53:51;;;;;;;;;;;7.70;77.40;;;6.57;61.57;100762.31;5043345;28;20318;-74
2023/03/05 06:56:20;;;;;;;;;;;7.70;77.50;;;6.55;61.76;100757.19;5040842;28;19932;-77
2023/03/05 06:58:48;;;;;;;;;;;7.90;77.60;;;6.53;61.82;100756.53;5036281;28;19932;-75
2023/03/05 07:01:16;;;;;;;;;;;7.60;77.70;;;6.53;62.08;100756.53;5042061;28;19929;-77
2023/03/05 07:03:43;;;;;;;;;;;7.70;77.90;;;6.54;61.94;100758.19;5046046;28;19929;-74
2023/03/05 07:06:12;;;;;;;;;;;7.70;78.00;;;6.56;62.01;100753.53;5036186;28;19939;-75
2023/03/05 07:08:39;;;;;;;;;;;7.70;77.80;;;6.57;62.07;100749.88;5040039;28;20315;-77
2023/03/05 07:11:09;;;;;;;;;;;7.70;77.80;;;6.52;61.92;100752.22;5039742;28;20420;-77
2023/03/05 07:13:38;;;;;;;;;;;7.60;77.70;;;6.48;62.02;100750.13;5044265;28;19969;-77
2023/03/05 07:16:06;;;;;;;;;;;7.60;77.90;;;6.50;61.92;100746.28;5042595;28;19929;-77
2023/03/05 07:18:33;;;;;;;;;;;7.60;78.10;;;6.53;62.21;100751.22;5046589;28;19925;-77
2023/03/05 07:21:02;;;;;;;;;;;7.70;78.20;;;6.51;61.97;100736.53;5024864;28;19933;-77
2023/03/05 07:23:29;;;;;;;;;;;7.60;78.00;;;6.53;62.48;100743.28;5028976;28;19929;-77
2023/03/05 07:25:56;;;;;;;;;;;7.60;78.10;;;6.47;62.31;100737.88;5035989;28;20297;-77
2023/03/05 07:28:23;;;;;;;;;;;7.60;78.10;;;6.47;62.34;100745.81;5029351;28;20138;-75
2023/03/05 07:30:57;;;;;;;;;;;7.60;78.20;;;6.42;62.42;100739.22;5034805;28;19940;-77
2023/03/05 07:33:25;;;;;;;;;;;7.60;78.40;;;6.36;63.08;100739.94;5033209;28;20008;-77
2023/03/05 07:35:52;;;;;;;;;;;7.50;78.60;;;6.41;62.94;100742.06;5039749;28;19943;-77
2023/03/05 07:38:19;;;;;;;;;;;7.50;78.70;;;6.38;63.19;100737.09;5029021;28;19929;-74
2023/03/05 07:40:46;;;;;;;;;;;7.50;78.80;;;6.36;62.94;100733.81;5032589;28;19936;-74
2023/03/05 07:43:13;;;;;;;;;;;7.50;78.80;;;6.40;63.01;100733.28;5035493;28;19929;-77
2023/03/05 07:45:40;;;;;;;;;;;7.50;79.00;;;6.42;63.02;100730.44;5022034;28;19936;-75
2023/03/05 07:48:12;;;;;;;;;;;7.50;79.20;;;6.39;62.76;100733.44;5028597;28;19925;-77
2023/03/05 07:50:40;;;;;;;;;;;7.50;78.70;;;6.30;63.00;100734.53;5033050;28;20470;-74
2023/03/05 07:53:07;;;;;;;;;;;7.40;79.10;;;6.19;63.76;100733.91;5046058;28;19929;-77
2023/03/05 07:55:34;;;;;;;;;;;7.30;79.40;;;6.15;63.61;100727.34;5039084;28;19928;-77
2023/03/05 07:58:01;;;;;;;;;;;7.30;79.60;;;6.23;63.80;100723.81;5027292;28;19979;-77
2023/03/05 08:00:28;;;;;;;;;;;7.30;79.70;;;6.20;63.76;100726.81;5050822;28;19929;-77
2023/03/05 08:02:55;;;;;;;;;;;7.40;79.50;;;6.18;63.78;100718.22;5048912;28;19966;-76
2023/03/05 08:05:23;;;;;;;;;;;7.40;79.40;;;6.13;63.99;100723.22;5046683;28;19931;-77
2023/03/05 08:07:51;;;;;;;;;;;7.30;79.60;;;6.19;63.91;100725.97;5040953;28;19933;-77
2023/03/05 08:10:18;;;;;;;;;;;7.40;79.80;;;6.20;63.89;100713.59;5048100;28;19952;-77
2023/03/05 08:12:45;;;;;;;;;;;7.40;80.00;;;6.30;63.78;100711.53;5042249;28;19935;-78
2023/03/05 08:15:12;;;;;;;;;;;7.40;80.00;;;6.38;63.95;100710.63;5041577;28;19936;-77
2023/03/05 08:17:39;;;;;;;;;;;7.50;80.10;;;6.32;63.92;100717.44;5047360;28;19932;-77
2023/03/05 08:20:09;;;;;;;;;;;7.50;80.00;;;6.37;64.23;100711.63;5052108;28;19949;-74
2023/03/05 08:22:38;;;;;;;;;;;7.50;80.40;;;6.44;64.20;100710.75;5050808;28;20474;-77
2023/03/05 08:25:06;;;;;;;;;;;7.50;80.40;;;6.45;64.27;100709.75;5031099;28;19929;-77
2023/03/05 08:27:33;;;;;;;;;;;7.50;80.40;;;6.47;64.31;100714.84;5050571;28;19932;-74
2023/03/05 08:30:01;;;;;;;;;;;7.50;80.40;;;6.51;64.48;100704.72;5043309;28;20007;-74
2023/03/05 08:32:28;;;;;;;;;;;7.50;80.50;;;6.44;64.67;100708.09;5042822;28;19932;-77
2023/03/05 08:34:57;;;;;;;;;;;7.50;80.60;;;6.42;64.37;100703.97;5048744;28;19935;-74
2023/03/05 08:37:24;;;;;;;;;;;7.50;80.60;;;6.47;64.79;100706.06;5048841;28;20173;-75
2023/03/05 08:39:52;;;;;;;;;;;7.50;80.70;;;6.50;64.27;100703.09;5037477;28;19933;-75
2023/03/05 08:42:20;;;;;;;;;;;7.70;80.80;;;6.48;64.50;100705.06;5049645;28;19925;-75
2023/03/05 08:44:47;;;;;;;;;;;7.60;80.70;;;6.49;64.76;100694.31;5048418;28;19951;-75
2023/03/05 08:47:14;;;;;;;;;;;7.60;81.10;;;6.43;65.19;100697.66;5049854;28;19929;-75
2023/03/05 08:49:41;;;;;;;;;;;7.60;81.00;;;6.22;65.68;100695.69;5045514;28;20473;-75
2023/03/05 08:52:08;;;;;;;;;;;7.50;81.40;;;6.28;65.64;100691.50;5050839;28;19925;-74
2023/03/05 08:54:36;;;;;;;;;;;7.50;81.40;;;6.29;65.67;100686.00;5049060;28;19929;-77
2023/03/05 08:57:05;;;;;;;;;;;7.50;81.60;;;6.31;66.52;100685.84;5048924;28;20330;-77
2023/03/05 08:59:32;;;;;;;;;;;7.50;82.00;;;6.21;66.34;100688.75;5042372;28;20019;-76
2023/03/05 09:02:00;;;;;;;;;;;7.40;82.00;;;6.23;66.48;100680.63;5026355;28;19932;-78
2023/03/05 09:04:27;;;;;;;;;;;7.40;82.20;;;6.31;66.56;100684.03;5049955;28;19929;-76
2023/03/05 09:06:54;;;;;;;;;;;7.40;82.00;;;6.23;66.28;100684.06;5047306;28;20382;-75
2023/03/05 09:09:21;;;;;;;;;;;7.40;82.30;;;6.17;66.81;100680.31;5051373;28;19929;-75
2023/03/05 09:11:50;;;;;;;;;;;7.30;82.50;;;6.16;66.67;100686.63;5045357;28;19925;-76
2023/03/05 09:14:19;;;;;;;;;;;7.30;82.70;;;6.23;66.70;100677.97;5027590;28;19933;-76
2023/03/05 09:16:46;;;;;;;;;;;7.30;82.80;;;6.28;66.71;100678.25;5050067;28;19929;-76
2023/03/05 09:19:13;;;;;;;;;;;7.40;82.70;;;6.29;66.60;100677.25;5046596;28;19925;-75
2023/03/05 09:21:41;;;;;;;;;;;7.40;82.70;;;6.36;66.92;100670.25;5045366;28;20468;-76
2023/03/05 09:24:08;;;;;;;;;;;7.50;82.90;;;6.34;66.80;100669.59;5045268;28;19932;-76
2023/03/05 09:26:35;;;;;;;;;;;7.50;82.90;;;6.25;67.53;100665.38;5046632;28;20035;-75
2023/03/05 09:29:02;;;;;;;;;;;7.40;83.10;;;6.19;67.72;100666.91;5044608;28;19929;-76
2023/03/05 09:31:30;;;;;;;;;;;7.40;83.10;;;6.25;67.47;100660.91;5035392;28;19932;-76
2023/03/05 09:33:57;;;;;;;;;;;7.40;83.20;;;6.29;67.33;100669.31;5032308;28;19935;-75
2023/03/05 09:36:26;;;;;;;;;;;7.40;83.30;;;6.33;67.62;100662.66;5049997;28;19929;-75
2023/03/05 09:38:53;;;;;;;;;;;7.40;83.40;;;6.20;67.78;100660.63;5050917;28;19924;-77
2023/03/05 09:41:28;;;;;;;;;;;7.30;83.50;;;6.25;67.51;100662.75;5050592;28;19929;-77
2023/03/05 09:44:02;;;;;;;;;;;7.40;83.40;;;6.29;67.53;100658.72;5050125;28;19936;-77
2023/03/05 09:46:41;;;;;;;;;;;7.40;83.50;;;6.32;67.85;100661.81;5046615;28;19925;-77
2023/03/05 09:49:15;;;;;;;;;;;7.40;83.70;;;6.36;67.86;100660.47;5049681;28;19925;-77
2023/03/05 09:51:45;;;;;;;;;;;7.40;83.80;;;6.33;67.75;100658.16;5030534;28;19937;-75
2023/03/05 09:54:14;;;;;;;;;;;7.40;83.60;;;6.37;67.69;100656.00;5032869;28;19929;-77
2023/03/05 09:56:44;;;;;;;;;;;7.40;83.60;;;6.41;67.44;100654.63;5049692;28;19932;-77
2023/03/05 09:59:21;;;;;;;;;;;7.60;83.50;;;6.42;67.31;100662.41;5050384;28;20386;-75
2023/03/05 10:01:51;;;;;;;;;;;7.50;83.50;;;6.43;67.31;100652.63;5050420;28;19964;-77
2023/03/05 10:04:20;;;;;;;;;;;7.50;83.30;;;6.43;67.66;100644.69;5049950;28;19931;-77
2023/03/05 10:06:52;;;;;;;;;;;7.50;83.60;;;6.40;67.27;100651.16;5046508;28;20727;-77
2023/03/05 10:09:31;;;;;;;;;;;7.50;83.50;;;6.28;67.36;100646.47;5048974;28;19924;-77
2023/03/05 10:12:00;;;;;;;;;;;7.50;83.30;;;6.35;67.35;100639.47;5032304;28;19943;-75
2023/03/05 10:14:30;;;;;;;;;;;7.40;83.10;;;6.42;67.23;100637.75;5049649;28;19936;-77
2023/03/05 10:17:24;;;;;;;;;;;7.50;83.30;;;6.45;67.44;100634.75;5039696;28;19929;-77
2023/03/05 10:20:06;;;;;;;;;;;7.60;83.30;;;6.43;67.97;100631.44;5030194;28;19933;-77
2023/03/05 10:22:38;;;;;;;;;;;7.60;83.50;;;6.40;67.65;100632.63;5030174;28;19939;-75
2023/03/05 10:25:17;;;;;;;;;;;7.60;83.10;;;6.49;67.49;100622.78;5038585;28;19935;-77
2023/03/05 10:27:49;;;;;;;;;;;7.60;83.30;;;6.58;67.61;100623.50;5042371;28;19924;-77
2023/03/05 10:30:39;;;;;;;;;;;7.70;83.50;;;6.62;67.29;100622.97;5049857;28;19929;-77
2023/03/05 10:33:15;;;;;;;;;;;7.70;83.20;;;6.59;67.10;100609.28;5049832;28;20279;-77
2023/03/05 10:36:10;;;;;;;;;;;7.70;83.10;;;6.44;67.07;100604.78;5041172;28;19931;-76
2023/03/05 10:38:50;;;;;;;;;;;7.60;82.70;;;6.48;67.40;100607.88;5045403;28;20023;-77
2023/03/05 10:41:25;;;;;;;;;;;7.60;83.00;;;6.51;67.36;100596.09;5045725;28;19928;-77
2023/03/05 10:43:56;;;;;;;;;;;7.70;83.20;;;6.54;67.62;100598.38;5049549;28;19929;-77
2023/03/05 10:46:30;;;;;;;;;;;7.70;83.50;;;6.55;66.88;100595.56;5048104;28;19928;-76
2023/03/05 10:49:01;;;;;;;;;;;7.70;82.90;;;6.64;67.18;100588.34;5049728;28;19929;-76
2023/03/05 10:51:33;;;;;;;;;;;7.80;83.10;;;6.71;67.36;100595.38;5047888;28;19990;-77
2023/03/05 10:54:09;;;;;;;;;;;7.80;83.10;;;6.71;66.05;100586.59;5049493;28;19928;-77
2023/03/05 10:56:35;;;;;;;;;;;7.80;81.80;;;6.56;65.46;100588.44;5048128;28;20394;-76
2023/03/05 10:59:03;;;;;;;;;;;7.80;81.40;;;6.59;65.87;100585.44;5049590;28;19929;-77
2023/03/05 11:01:30;;;;;;;;;;;7.80;81.80;;;6.55;65.67;100586.78;5047841;28;20357;-76
2023/03/05 11:04:02;;;;;;;;;;;7.80;81.50;;;6.43;64.61;100584.56;5048576;28;20629;-76
2023/03/05 11:06:35;;;;;;;;;;;7.70;80.70;;;6.40;65.56;100590.25;5047852;28;20007;-77
2023/03/05 11:09:19;;;;;;;;;;;7.60;81.20;;;6.48;65.88;100594.63;5049313;28;19982;-77
2023/03/05 11:12:09;;;;;;;;;;;7.60;81.40;;;6.47;65.64;100598.28;5047743;28;20036;-76
2023/03/05 11:14:38;;;;;;;;;;;7.70;81.50;;;6.51;65.26;100598.75;5047229;28;19929;-77
2023/03/05 11:17:26;;;;;;;;;;;7.60;81.20;;;6.37;64.47;100589.78;5048409;28;19963;-77
2023/03/05 11:19:54;;;;;;;;;;;7.60;80.50;;;6.17;65.13;100598.22;5049213;28;19935;-77
2023/03/05 11:22:22;;;;;;;;;;;7.50;80.60;;;6.32;65.20;100592.97;5046894;28;19933;-77
2023/03/05 11:25:05;;;;;;;;;;;7.50;80.80;;;6.41;64.81;100577.81;5040693;28;19925;-77
2023/03/05 11:27:35;;;;;;;;;;;7.60;80.60;;;6.46;64.84;100575.44;5046536;28;19939;-77
2023/03/05 11:30:03;;;;;;;;;;;7.60;80.80;;;6.45;64.56;100576.47;5049042;28;19943;-77
2023/03/05 11:32:30;;;;;;;;;;;7.60;80.80;;;6.45;65.03;100560.56;5049218;28;20399;-77